createdAt,value
2023-06-25T10:51:38.680Z,36.70
2023-06-25T10:54:09.244Z,36.60
2023-06-25T10:56:39.279Z,37.70
2023-06-25T10:59:06.565Z,38.80
2023-06-25T11:01:36.095Z,38.10
2023-06-25T11:04:13.705Z,38.10
2023-06-25T11:06:41.153Z,38.90
2023-06-25T11:09:08.551Z,38.10
2023-06-25T11:11:35.979Z,38.30
2023-06-25T11:14:03.267Z,38.80
2023-06-25T11:16:30.693Z,38.70
2023-06-25T11:18:58.293Z,39.20
2023-06-25T11:21:25.792Z,38.90
2023-06-25T11:23:53.211Z,38.80
2023-06-25T11:26:20.539Z,38.70
2023-06-25T11:28:49.706Z,36.30
2023-06-25T11:31:17.102Z,37.10
2023-06-25T11:33:57.362Z,37.50
2023-06-25T11:36:24.995Z,36.90
2023-06-25T11:38:54.775Z,37.40
2023-06-25T11:41:27.593Z,36.70
2023-06-25T11:43:54.955Z,38.50
2023-06-25T11:46:22.344Z,38.40
2023-06-25T11:48:51.935Z,35.90
2023-06-25T11:51:19.362Z,37.20
2023-06-25T11:53:46.743Z,37.10
2023-06-25T11:56:16.555Z,36.30
2023-06-25T11:58:43.916Z,36.60
2023-06-25T12:01:12.040Z,37.50
2023-06-25T12:03:41.978Z,37.20
2023-06-25T12:06:11.729Z,38.30
2023-06-25T12:08:41.714Z,38.90
2023-06-25T12:11:14.512Z,39.50
2023-06-25T12:13:42.257Z,38.60
2023-06-25T12:16:09.553Z,40.30
2023-06-25T12:18:36.854Z,39.50
2023-06-25T12:21:06.637Z,39.60
2023-06-25T12:23:34.009Z,40.60
2023-06-25T12:26:01.281Z,39.60
2023-06-25T12:28:28.674Z,39.70
2023-06-25T12:30:56.612Z,40.40
2023-06-25T12:33:24.005Z,38.90
2023-06-25T12:35:53.836Z,39.30
2023-06-25T12:38:23.918Z,39.70
2023-06-25T12:40:57.949Z,39.40
2023-06-25T12:43:25.536Z,39.50
2023-06-25T12:45:52.828Z,40.00
2023-06-25T12:48:22.685Z,40.40
2023-06-25T12:50:52.629Z,40.40
2023-06-25T12:58:38.789Z,43.10
2023-06-25T13:01:08.316Z,57.90
2023-06-25T13:03:36.147Z,56.00
2023-06-25T13:06:03.861Z,56.30
2023-06-25T13:08:31.136Z,57.60
2023-06-25T13:11:03.673Z,57.70
2023-06-25T13:13:31.123Z,58.30
2023-06-25T13:15:58.661Z,55.10
2023-06-25T13:18:26.095Z,55.60
2023-06-25T13:20:53.408Z,53.50
2023-06-25T13:23:20.745Z,54.40
2023-06-25T13:25:50.444Z,52.10
2023-06-25T13:28:17.767Z,54.10
2023-06-25T13:30:46.835Z,55.20
2023-06-25T13:33:14.230Z,52.70
2023-06-25T13:35:41.561Z,55.50
2023-06-25T13:38:11.288Z,53.80
2023-06-25T13:40:38.568Z,53.20
2023-06-25T13:43:08.373Z,54.50
2023-06-25T13:45:35.854Z,54.00
2023-06-25T13:48:05.581Z,53.30
2023-06-25T13:50:35.660Z,54.60
2023-06-25T13:53:02.929Z,56.20
2023-06-25T13:55:30.300Z,57.20
2023-06-25T13:57:57.799Z,58.10
2023-06-25T14:00:25.263Z,57.30
2023-06-25T14:03:06.785Z,59.10
2023-06-25T14:05:41.394Z,58.70
2023-06-25T14:08:08.736Z,55.30
2023-06-25T14:10:38.394Z,58.10
2023-06-25T14:13:05.797Z,58.40
2023-06-25T14:15:33.184Z,58.90
2023-06-25T14:18:00.617Z,56.40
2023-06-25T14:20:27.979Z,56.10
2023-06-25T14:22:55.276Z,55.60
2023-06-25T14:25:22.578Z,55.10
2023-06-25T14:27:49.895Z,56.30
2023-06-25T14:30:19.701Z,56.10
2023-06-25T14:32:49.330Z,57.30
2023-06-25T14:35:18.978Z,56.00
2023-06-25T14:37:46.999Z,54.50
2023-06-25T14:40:14.391Z,56.10
2023-06-25T14:42:41.739Z,56.20
2023-06-25T14:45:09.786Z,53.90
2023-06-25T14:47:37.766Z,56.40
2023-06-25T14:50:05.607Z,54.90
2023-06-25T14:52:32.992Z,56.80
2023-06-25T14:55:00.325Z,55.80
2023-06-25T14:57:27.657Z,54.10
2023-06-25T14:59:59.283Z,56.50
2023-06-25T15:02:26.722Z,57.70
2023-06-25T15:04:54.388Z,57.40
2023-06-25T15:07:21.796Z,55.40
2023-06-25T15:09:49.136Z,57.30
2023-06-25T15:12:16.493Z,57.90
2023-06-25T15:14:45.551Z,56.70
2023-06-25T15:17:13.509Z,55.70
2023-06-25T15:19:40.880Z,57.60
2023-06-25T15:22:08.344Z,57.90
2023-06-25T15:24:35.813Z,58.00
2023-06-25T15:27:03.454Z,57.40
2023-06-25T15:29:31.063Z,56.10
2023-06-25T15:32:01.066Z,56.80
2023-06-25T15:34:28.654Z,56.00
2023-06-25T15:36:56.057Z,54.80
2023-06-25T15:39:23.632Z,56.10
2023-06-25T15:41:51.172Z,56.70
2023-06-25T15:44:18.454Z,54.20
2023-06-25T15:46:48.016Z,54.50
2023-06-25T15:49:15.518Z,56.30
2023-06-25T15:51:43.890Z,55.10
2023-06-25T15:56:49.003Z,52.20
2023-06-25T15:59:16.383Z,54.60
2023-06-25T16:01:43.827Z,54.10
2023-06-25T16:04:11.628Z,54.80
2023-06-25T16:06:38.943Z,55.40
2023-06-25T16:09:06.306Z,54.30
2023-06-25T16:11:36.949Z,56.00
2023-06-25T16:14:06.756Z,55.90
2023-06-25T16:16:34.584Z,56.30
2023-06-25T16:19:21.003Z,54.10
2023-06-25T16:21:49.105Z,54.50
2023-06-25T16:24:17.346Z,54.00
2023-06-25T16:26:44.653Z,53.60
2023-06-25T16:29:12.170Z,55.20
2023-06-25T16:31:39.525Z,55.90
2023-06-25T16:34:06.879Z,55.40
2023-06-25T16:36:34.213Z,55.90
2023-06-25T16:39:01.834Z,54.10
2023-06-25T16:41:31.187Z,54.30
2023-06-25T16:44:02.570Z,55.50
2023-06-25T16:46:32.423Z,53.00
2023-06-25T16:48:59.821Z,55.20
2023-06-25T16:51:29.322Z,56.00
2023-06-25T16:54:00.940Z,56.40
2023-06-25T16:56:34.834Z,57.00
2023-06-25T16:59:04.622Z,56.60
2023-06-25T17:01:32.117Z,58.10
2023-06-25T17:03:59.561Z,57.60
2023-06-25T17:06:27.002Z,57.50
2023-06-25T17:08:54.343Z,59.00
2023-06-25T17:11:22.626Z,58.40
2023-06-25T17:13:50.196Z,58.80
2023-06-25T17:16:17.513Z,58.40
2023-06-25T17:18:47.066Z,57.50
2023-06-25T17:21:14.422Z,58.10
2023-06-25T17:23:41.694Z,59.30
2023-06-25T17:26:11.695Z,58.90
2023-06-25T17:28:39.809Z,58.20
2023-06-25T17:31:07.089Z,58.40
2023-06-25T17:33:36.921Z,58.80
2023-06-25T17:36:04.564Z,58.60
2023-06-25T17:38:31.861Z,58.30
2023-06-25T17:40:59.134Z,58.20
2023-06-25T17:43:26.519Z,58.20
2023-06-25T17:45:56.659Z,59.20
2023-06-25T17:48:24.049Z,58.70
2023-06-25T17:50:51.545Z,57.00
2023-06-25T17:53:20.235Z,57.60
2023-06-25T17:55:47.899Z,58.40
2023-06-25T17:58:15.434Z,59.50
2023-06-25T18:00:43.812Z,57.90
2023-06-25T18:03:13.594Z,58.30
2023-06-25T18:05:41.084Z,55.20
2023-06-25T18:08:08.365Z,56.40
2023-06-25T18:10:35.817Z,55.40
2023-06-25T18:13:03.121Z,54.00
2023-06-25T18:15:40.119Z,53.20
2023-06-25T18:18:08.259Z,53.70
2023-06-25T18:20:35.613Z,53.20
2023-06-25T18:23:03.095Z,53.30
2023-06-25T18:25:30.409Z,53.20
2023-06-25T18:28:00.026Z,53.90
2023-06-25T18:30:27.414Z,53.20
2023-06-25T18:32:57.230Z,53.50
2023-06-25T18:35:26.891Z,53.30
2023-06-25T18:37:54.219Z,54.20
2023-06-25T18:40:21.517Z,54.70
2023-06-25T18:42:53.491Z,53.80
2023-06-25T18:45:21.151Z,53.70
2023-06-25T18:47:48.449Z,54.10
2023-06-25T18:50:18.378Z,54.10
2023-06-25T18:52:45.875Z,53.70
2023-06-25T18:55:13.381Z,53.10
2023-06-25T18:57:40.862Z,53.90
2023-06-25T19:00:10.908Z,54.00
2023-06-25T19:02:38.771Z,54.00
2023-06-25T19:05:06.983Z,54.00
2023-06-25T19:07:39.744Z,54.70
2023-06-25T19:10:14.891Z,54.70
2023-06-25T19:12:44.607Z,54.70
2023-06-25T19:15:12.077Z,55.20
2023-06-25T19:17:39.469Z,54.50
2023-06-25T19:20:07.176Z,54.40
2023-06-25T19:22:34.455Z,55.40
2023-06-25T19:25:03.914Z,55.50
2023-06-25T19:27:33.922Z,56.20
2023-06-25T19:30:01.364Z,55.80
2023-06-25T19:32:31.226Z,56.50
2023-06-25T19:35:00.057Z,56.60
2023-06-25T19:37:27.456Z,56.40
2023-06-25T19:39:59.444Z,56.70
2023-06-25T19:42:26.762Z,56.70
2023-06-25T19:44:56.280Z,56.70
2023-06-25T19:47:23.981Z,56.30
2023-06-25T19:49:51.499Z,56.40
2023-06-25T19:52:19.074Z,56.80
2023-06-25T19:54:48.606Z,57.00
2023-06-25T19:57:16.081Z,57.10
2023-06-25T19:59:43.378Z,57.50
2023-06-25T20:02:10.824Z,57.40
2023-06-25T20:04:39.653Z,57.40
2023-06-25T20:07:07.169Z,57.40
2023-06-25T20:09:36.936Z,57.20
2023-06-25T20:12:04.514Z,57.30
2023-06-25T20:14:31.828Z,57.50
2023-06-25T20:16:59.399Z,57.60
2023-06-25T20:19:26.704Z,57.70
2023-06-25T20:21:56.206Z,58.30
2023-06-25T20:24:25.823Z,58.10
2023-06-25T20:26:53.115Z,58.30
2023-06-25T20:29:20.446Z,58.30
2023-06-25T20:31:47.836Z,58.40
2023-06-25T20:34:15.425Z,59.00
2023-06-25T20:36:45.199Z,58.70
2023-06-25T20:39:14.995Z,58.80
2023-06-25T20:41:44.693Z,58.50
2023-06-25T20:44:16.365Z,58.90
2023-06-25T20:46:43.706Z,59.00
2023-06-25T20:49:20.093Z,58.90
2023-06-25T20:51:50.215Z,59.20
2023-06-25T20:54:19.821Z,59.00
2023-06-25T20:56:47.197Z,59.10
2023-06-25T20:59:14.582Z,59.00
2023-06-25T21:01:42.064Z,57.70
2023-06-25T21:04:11.995Z,58.30
2023-06-25T21:06:39.310Z,58.70
2023-06-25T21:09:07.150Z,58.20
2023-06-25T21:11:34.735Z,58.10
2023-06-25T21:14:06.165Z,58.10
2023-06-25T21:16:33.694Z,58.10
2023-06-25T21:19:01.037Z,57.90
2023-06-25T21:21:28.769Z,58.50
2023-06-25T21:23:56.130Z,57.90
2023-06-25T21:26:23.836Z,57.80
2023-06-25T21:28:51.339Z,57.80
2023-06-25T21:31:18.846Z,58.20
2023-06-25T21:33:46.186Z,57.80
2023-06-25T21:36:13.480Z,58.10
2023-06-25T21:38:40.821Z,58.00
2023-06-25T21:41:08.137Z,58.00
2023-06-25T21:43:35.557Z,58.00
2023-06-25T21:46:02.934Z,58.10
2023-06-25T21:48:30.353Z,57.70
2023-06-25T21:51:02.905Z,57.90
2023-06-25T21:53:30.175Z,58.00
2023-06-25T21:55:57.516Z,57.80
2023-06-25T21:58:25.072Z,57.70
2023-06-25T22:00:55.159Z,57.80
2023-06-25T22:03:22.957Z,57.90
2023-06-25T22:05:50.394Z,58.20
2023-06-25T22:08:17.715Z,58.10
2023-06-25T22:10:45.451Z,58.00
2023-06-25T22:13:18.363Z,58.10
2023-06-25T22:15:46.916Z,58.20
2023-06-25T22:18:16.815Z,58.00
2023-06-25T22:20:44.245Z,58.10
2023-06-25T22:23:11.731Z,58.40
2023-06-25T22:25:39.079Z,58.10
2023-06-25T22:28:08.888Z,58.00
2023-06-25T22:30:38.607Z,58.20
2023-06-25T22:33:08.570Z,58.20
2023-06-25T22:35:36.324Z,58.30
2023-06-25T22:38:03.874Z,58.70
2023-06-25T22:40:31.498Z,59.00
2023-06-25T22:42:59.334Z,59.30
2023-06-25T22:45:26.927Z,59.80
2023-06-25T22:47:56.363Z,60.10
2023-06-25T22:50:23.859Z,60.30
2023-06-25T22:52:51.183Z,60.30
2023-06-25T22:55:20.739Z,60.80
2023-06-25T22:57:48.262Z,60.60
2023-06-25T23:00:16.116Z,60.40
2023-06-25T23:02:43.696Z,60.30
2023-06-25T23:05:12.709Z,60.70
2023-06-25T23:07:42.491Z,60.60
2023-06-25T23:10:10.956Z,61.00
2023-06-25T23:12:38.316Z,61.30
2023-06-25T23:15:06.360Z,61.40
2023-06-25T23:17:36.493Z,61.50
2023-06-25T23:20:06.720Z,61.30
2023-06-25T23:22:34.752Z,61.10
2023-06-25T23:25:09.806Z,61.80
2023-06-25T23:27:43.031Z,61.40
2023-06-25T23:30:12.870Z,61.30
2023-06-25T23:32:41.333Z,61.20
2023-06-25T23:35:12.037Z,61.10
2023-06-25T23:37:45.395Z,61.10
2023-06-25T23:40:13.265Z,61.20
2023-06-25T23:42:40.762Z,61.10
2023-06-25T23:45:13.370Z,61.00
2023-06-25T23:47:42.834Z,60.70
2023-06-25T23:50:10.175Z,60.60
2023-06-25T23:52:37.567Z,60.60
2023-06-25T23:55:08.585Z,60.50
2023-06-25T23:57:35.941Z,60.40
